createdAt,value
2022-11-06T00:00:58.880Z,96277.59
2022-11-06T00:03:25.829Z,96280.78
2022-11-06T00:06:10.874Z,96285.34
2022-11-06T00:08:41.056Z,96301.25
2022-11-06T00:11:17.065Z,96293.34
2022-11-06T00:13:44.777Z,96300.75
2022-11-06T00:16:12.901Z,96303.06
2022-11-06T00:18:39.914Z,96306.34
2022-11-06T00:21:12.461Z,96309.16
2022-11-06T00:23:39.474Z,96302.13
2022-11-06T00:26:11.102Z,96305.94
2022-11-06T00:28:38.466Z,96306.66
2022-11-06T00:31:07.442Z,96304.22
2022-11-06T00:33:34.662Z,96312.81
2022-11-06T00:36:06.313Z,96306.31
2022-11-06T00:38:33.502Z,96309.50
2022-11-06T00:41:05.344Z,96314.75
2022-11-06T00:43:33.167Z,96303.22
2022-11-06T00:46:04.483Z,96309.22
2022-11-06T00:48:31.466Z,96314.97
2022-11-06T00:51:11.981Z,96319.97
2022-11-06T00:53:39.637Z,96317.22
2022-11-06T00:56:08.902Z,96315.97
2022-11-06T00:58:36.017Z,96316.56
2022-11-06T01:01:08.664Z,96324.97
2022-11-06T01:03:35.543Z,96322.34
2022-11-06T01:06:11.569Z,96320.09
2022-11-06T01:08:38.839Z,96317.59
2022-11-06T01:11:07.789Z,96322.16
2022-11-06T01:13:34.705Z,96322.88
2022-11-06T01:16:01.426Z,96327.41
2022-11-06T01:18:28.098Z,96325.66
2022-11-06T01:20:54.749Z,96328.78
2022-11-06T01:23:21.475Z,96321.81
2022-11-06T01:25:59.478Z,96327.94
2022-11-06T01:28:27.221Z,96321.13
2022-11-06T01:30:54.543Z,96325.81
2022-11-06T01:33:21.705Z,96321.63
2022-11-06T01:35:50.301Z,96323.91
2022-11-06T01:38:17.126Z,96325.13
2022-11-06T01:40:48.582Z,96320.72
2022-11-06T01:43:19.783Z,96323.09
2022-11-06T01:45:49.354Z,96327.28
2022-11-06T01:48:20.222Z,96324.78
2022-11-06T01:50:51.364Z,96334.00
2022-11-06T01:53:18.383Z,96328.41
2022-11-06T01:55:51.434Z,96330.19
2022-11-06T01:58:21.141Z,96330.78
2022-11-06T02:00:48.955Z,96334.97
2022-11-06T02:03:16.218Z,96329.94
2022-11-06T02:05:43.480Z,96329.09
2022-11-06T02:08:13.276Z,96321.47
2022-11-06T02:10:41.216Z,96329.25
2022-11-06T02:13:10.674Z,96316.41
2022-11-06T02:15:53.769Z,96321.13
2022-11-06T02:18:39.672Z,96317.75
2022-11-06T02:21:24.304Z,96322.31
2022-11-06T02:24:09.465Z,96316.81
2022-11-06T02:26:51.045Z,96324.38
2022-11-06T02:29:22.596Z,96330.16
2022-11-06T02:31:55.143Z,96329.28
2022-11-06T02:34:26.701Z,96331.91
2022-11-06T02:37:01.108Z,96335.50
2022-11-06T02:39:29.800Z,96334.09
2022-11-06T02:41:59.635Z,96336.50
2022-11-06T02:44:29.464Z,96341.28
2022-11-06T02:47:01.676Z,96340.56
2022-11-06T02:49:49.479Z,96352.53
2022-11-06T02:52:24.860Z,96343.44
2022-11-06T02:54:58.136Z,96344.19
2022-11-06T02:57:27.141Z,96344.06
2022-11-06T03:00:11.786Z,96353.16
2022-11-06T03:03:05.966Z,96344.41
2022-11-06T03:06:14.821Z,96339.16
2022-11-06T03:08:59.191Z,96335.69
2022-11-06T03:11:29.825Z,96344.19
2022-11-06T03:14:10.160Z,96342.03
2022-11-06T03:16:55.030Z,96340.59
2022-11-06T03:19:49.030Z,96348.25
2022-11-06T03:22:30.872Z,96342.75
2022-11-06T03:25:19.378Z,96350.63
2022-11-06T03:27:58.264Z,96350.63
2022-11-06T03:30:25.140Z,96351.13
2022-11-06T03:32:58.753Z,96353.75
2022-11-06T03:35:32.661Z,96348.50
2022-11-06T03:38:05.141Z,96352.94
2022-11-06T03:40:37.741Z,96358.53
2022-11-06T03:43:08.440Z,96367.53
2022-11-06T03:45:38.947Z,96364.75
2022-11-06T03:48:20.096Z,96365.00
2022-11-06T03:51:22.097Z,96369.31
2022-11-06T03:53:54.279Z,96374.59
2022-11-06T03:56:44.113Z,96378.31
2022-11-06T03:59:14.400Z,96384.41
2022-11-06T04:01:45.581Z,96376.50
2022-11-06T04:04:36.250Z,96376.03
2022-11-06T04:07:10.313Z,96373.50
2022-11-06T04:09:59.727Z,96384.66
2022-11-06T04:12:48.361Z,96381.53
2022-11-06T04:15:17.805Z,96380.09
2022-11-06T04:17:44.489Z,96390.97
2022-11-06T04:20:36.170Z,96386.78
2022-11-06T04:23:33.181Z,96395.31
2022-11-06T04:26:38.069Z,96384.28
2022-11-06T04:29:13.470Z,96391.81
2022-11-06T04:31:54.015Z,96391.22
2022-11-06T04:34:27.765Z,96393.00
2022-11-06T04:37:06.661Z,96393.22
2022-11-06T04:39:53.954Z,96395.66
2022-11-06T04:42:49.935Z,96405.56
2022-11-06T04:45:39.845Z,96395.84
2022-11-06T04:48:07.897Z,96392.41
2022-11-06T04:50:41.130Z,96395.84
2022-11-06T04:53:10.766Z,96393.22
2022-11-06T04:56:01.590Z,96394.31
2022-11-06T04:58:28.240Z,96398.84
2022-11-06T05:00:54.918Z,96394.66
2022-11-06T05:03:21.601Z,96398.84
2022-11-06T05:05:48.173Z,96402.44
2022-11-06T05:08:17.246Z,96402.22
2022-11-06T05:10:44.402Z,96397.28
2022-11-06T05:13:11.779Z,96399.09
2022-11-06T05:15:38.394Z,96403.50
2022-11-06T05:18:05.739Z,96405.44
2022-11-06T05:20:33.079Z,96404.56
2022-11-06T05:23:02.531Z,96401.13
2022-11-06T05:25:38.428Z,96404.56
2022-11-06T05:28:09.332Z,96405.66
2022-11-06T05:30:37.494Z,96405.66
2022-11-06T05:33:04.596Z,96407.31
2022-11-06T05:35:31.278Z,96407.31
2022-11-06T05:38:02.324Z,96411.03
2022-11-06T05:40:29.236Z,96406.75
2022-11-06T05:42:55.900Z,96408.75
2022-11-06T05:45:22.576Z,96414.13
2022-11-06T05:47:49.247Z,96409.94
2022-11-06T05:50:15.918Z,96410.19
2022-11-06T05:52:42.582Z,96405.88
2022-11-06T05:55:14.440Z,96414.09
2022-11-06T05:57:42.382Z,96418.63
2022-11-06T06:00:11.150Z,96416.94
2022-11-06T06:02:38.200Z,96419.47
2022-11-06T06:05:06.492Z,96417.56
2022-11-06T06:07:33.391Z,96431.69
2022-11-06T06:09:59.986Z,96424.53
2022-11-06T06:12:26.849Z,96431.44
2022-11-06T06:14:54.201Z,96434.19
2022-11-06T06:17:21.429Z,96432.06
2022-11-06T06:19:48.664Z,96437.06
2022-11-06T06:22:15.297Z,96437.69
2022-11-06T06:24:41.975Z,96443.66
2022-11-06T06:27:08.831Z,96446.09
2022-11-06T06:29:35.855Z,96443.09
2022-11-06T06:32:03.960Z,96440.97
2022-11-06T06:34:30.593Z,96437.38
2022-11-06T06:36:57.212Z,96431.06
2022-11-06T06:39:23.873Z,96435.13
2022-11-06T06:41:50.472Z,96434.44
2022-11-06T06:44:17.202Z,96433.56
2022-11-06T06:46:43.812Z,96443.91
2022-11-06T06:49:10.552Z,96446.94
2022-11-06T06:51:37.270Z,96447.69
2022-11-06T06:54:04.129Z,96452.06
2022-11-06T06:56:30.751Z,96452.38
2022-11-06T06:58:57.425Z,96449.06
2022-11-06T07:01:24.237Z,96454.41
2022-11-06T07:03:50.933Z,96452.19
2022-11-06T07:06:20.710Z,96452.44
2022-11-06T07:08:47.696Z,96451.31
2022-11-06T07:11:14.639Z,96460.25
2022-11-06T07:13:41.355Z,96457.16
2022-11-06T07:16:10.374Z,96467.25
2022-11-06T07:18:38.028Z,96462.44
2022-11-06T07:21:06.645Z,96460.69
2022-11-06T07:23:35.545Z,96455.53
2022-11-06T07:26:02.833Z,96451.41
2022-11-06T07:28:29.781Z,96452.56
2022-11-06T07:31:01.125Z,96456.34
2022-11-06T07:33:28.085Z,96454.56
2022-11-06T07:35:55.103Z,96446.09
2022-11-06T07:38:21.822Z,96450.94
2022-11-06T07:40:48.492Z,96445.81
2022-11-06T07:43:15.492Z,96450.69
2022-11-06T07:45:42.184Z,96440.66
2022-11-06T07:48:09.533Z,96447.34
2022-11-06T07:50:36.202Z,96447.88
2022-11-06T07:53:03.666Z,96441.75
2022-11-06T07:55:30.570Z,96444.75
2022-11-06T07:57:59.491Z,96447.19
2022-11-06T08:00:26.538Z,96448.69
2022-11-06T08:02:53.604Z,96442.66
2022-11-06T08:05:20.877Z,96455.03
2022-11-06T08:07:47.526Z,96442.88
2022-11-06T08:10:14.332Z,96442.97
2022-11-06T08:12:40.959Z,96448.00
2022-11-06T08:15:07.799Z,96443.81
2022-11-06T08:17:34.431Z,96441.47
2022-11-06T08:20:01.101Z,96432.19
2022-11-06T08:22:27.751Z,96433.44
2022-11-06T08:24:54.384Z,96426.88
2022-11-06T08:27:21.004Z,96434.72
2022-11-06T08:29:47.701Z,96429.13
2022-11-06T08:32:14.435Z,96428.19
2022-11-06T08:34:42.407Z,96429.00
2022-11-06T08:37:10.568Z,96425.09
2022-11-06T08:39:37.428Z,96423.19
2022-11-06T08:42:05.567Z,96414.13
2022-11-06T08:44:32.292Z,96413.59
2022-11-06T08:46:59.012Z,96412.88
2022-11-06T08:49:25.674Z,96418.09
2022-11-06T08:51:53.921Z,96397.59
2022-11-06T08:54:21.025Z,96402.91
2022-11-06T08:56:47.630Z,96397.63
2022-11-06T08:59:14.308Z,96398.16
2022-11-06T09:01:41.044Z,96398.69
2022-11-06T09:04:08.173Z,96393.00
2022-11-06T09:06:34.884Z,96389.97
2022-11-06T09:09:01.535Z,96389.16
2022-11-06T09:11:29.022Z,96394.47
2022-11-06T09:13:55.621Z,96396.47
2022-11-06T09:16:22.286Z,96388.63
2022-11-06T09:18:48.897Z,96389.81
2022-11-06T09:21:15.797Z,96386.81
2022-11-06T09:23:42.517Z,96385.44
2022-11-06T09:26:09.207Z,96381.47
2022-11-06T09:28:35.829Z,96378.28
2022-11-06T09:31:02.915Z,96375.84
2022-11-06T09:33:29.566Z,96377.16
2022-11-06T09:35:56.243Z,96380.66
2022-11-06T09:38:22.938Z,96372.34
2022-11-06T09:40:58.273Z,96368.13
2022-11-06T09:46:34.197Z,96367.66
2022-11-06T09:49:15.926Z,96363.59
2022-11-06T09:52:02.799Z,96360.59
2022-11-06T09:54:33.905Z,96354.97
2022-11-06T09:57:18.405Z,96359.63
2022-11-06T09:59:46.611Z,96354.56
2022-11-06T10:02:33.077Z,96351.38
2022-11-06T10:05:14.641Z,96349.63
2022-11-06T10:07:42.798Z,96348.03
2022-11-06T10:10:18.207Z,96353.53
2022-11-06T10:13:01.724Z,96340.00
2022-11-06T10:15:34.320Z,96337.97
2022-11-06T10:18:19.202Z,96343.50
2022-11-06T10:20:52.994Z,96340.19
2022-11-06T10:23:23.643Z,96333.94
2022-11-06T10:25:58.023Z,96332.19
2022-11-06T10:28:50.124Z,96327.00
2022-11-06T10:31:38.570Z,96329.06
2022-11-06T10:34:17.947Z,96330.19
2022-11-06T10:37:15.445Z,96318.25
2022-11-06T10:39:42.876Z,96320.31
2022-11-06T10:42:17.128Z,96317.66
2022-11-06T10:45:03.750Z,96308.66
2022-11-06T10:47:33.909Z,96303.75
2022-11-06T10:50:03.201Z,96297.50
2022-11-06T10:52:54.576Z,96291.59
2022-11-06T10:55:42.754Z,96280.13
2022-11-06T10:58:14.387Z,96276.75
2022-11-06T11:00:41.983Z,96270.44
2022-11-06T11:03:27.339Z,96265.19
2022-11-06T11:05:55.732Z,96281.88
2022-11-06T11:08:31.313Z,96271.47
2022-11-06T11:11:05.177Z,96276.75
2022-11-06T11:13:32.886Z,96257.91
2022-11-06T11:15:59.769Z,96249.50
2022-11-06T11:18:34.458Z,96249.13
2022-11-06T11:21:16.485Z,96253.19
2022-11-06T11:23:43.783Z,96252.09
2022-11-06T11:26:24.224Z,96249.63
2022-11-06T11:28:54.519Z,96251.63
2022-11-06T11:31:29.567Z,96238.97
2022-11-06T11:33:59.797Z,96253.34
2022-11-06T11:36:26.850Z,96251.88
2022-11-06T11:38:53.583Z,96256.72
2022-11-06T11:41:20.241Z,96252.78
2022-11-06T11:44:04.187Z,96254.22
2022-11-06T11:46:31.825Z,96248.31
2022-11-06T11:48:59.827Z,96244.88
2022-11-06T11:51:26.598Z,96247.50
2022-11-06T11:53:57.400Z,96248.06
2022-11-06T11:56:57.671Z,96245.97
2022-11-06T11:59:19.160Z,96252.06
2022-11-06T12:01:47.308Z,96244.31
2022-11-06T12:04:19.809Z,96243.84
2022-11-06T12:06:55.692Z,96246.47
2022-11-06T12:09:23.277Z,96241.81
2022-11-06T12:11:50.467Z,96237.59
2022-11-06T12:14:29.489Z,96228.50
2022-11-06T12:17:21.774Z,96219.00
2022-11-06T12:19:58.255Z,96211.91
2022-11-06T12:22:29.627Z,96215.16
2022-11-06T12:25:04.110Z,96209.03
2022-11-06T12:27:39.225Z,96201.50
2022-11-06T12:30:11.251Z,96202.16
2022-11-06T12:33:10.126Z,96203.19
2022-11-06T12:35:48.242Z,96200.72
2022-11-06T12:38:57.176Z,96192.72
2022-11-06T12:41:35.784Z,96201.25
2022-11-06T12:44:02.861Z,96200.75
2022-11-06T12:47:11.303Z,96193.13
2022-11-06T12:49:47.427Z,96185.13
2022-11-06T12:52:37.877Z,96189.47
2022-11-06T12:55:21.158Z,96190.53
2022-11-06T12:57:57.717Z,96192.69
2022-11-06T13:00:57.002Z,96195.69
2022-11-06T13:03:42.578Z,96200.34
2022-11-06T13:06:44.792Z,96188.69
2022-11-06T13:09:19.200Z,96182.50
2022-11-06T13:12:13.075Z,96182.00
2022-11-06T13:14:48.807Z,96186.00
2022-11-06T13:17:21.377Z,96178.38
2022-11-06T13:19:47.985Z,96186.69
2022-11-06T13:22:29.417Z,96185.34
2022-11-06T13:25:07.435Z,96195.31
2022-11-06T13:27:50.870Z,96193.03
2022-11-06T13:30:20.328Z,96201.50
2022-11-06T13:33:22.525Z,96206.34
2022-11-06T13:35:49.512Z,96215.66
2022-11-06T13:38:28.327Z,96217.69
2022-11-06T13:41:03.508Z,96223.50
2022-11-06T13:43:41.682Z,96224.19
2022-11-06T13:46:08.270Z,96224.53
2022-11-06T13:48:46.983Z,96222.34
2022-11-06T13:51:32.258Z,96221.34
2022-11-06T13:54:25.143Z,96218.19
2022-11-06T13:57:29.344Z,96213.84
2022-11-06T14:00:36.879Z,96214.03
2022-11-06T14:03:35.567Z,96205.56
2022-11-06T14:06:08.548Z,96200.41
2022-11-06T14:08:43.545Z,96200.06
2022-11-06T14:11:21.852Z,96203.03
2022-11-06T14:14:02.146Z,96207.53
2022-11-06T14:16:40.431Z,96201.88
2022-11-06T14:19:14.795Z,96201.22
2022-11-06T14:21:51.307Z,96203.72
2022-11-06T14:24:37.367Z,96207.88
2022-11-06T14:27:09.061Z,96208.84
2022-11-06T14:29:35.654Z,96196.38
2022-11-06T14:32:02.303Z,96192.03
2022-11-06T14:34:31.811Z,96194.28
2022-11-06T14:36:58.485Z,96206.75
2022-11-06T14:39:55.850Z,96205.41
2022-11-06T14:42:36.225Z,96190.88
2022-11-06T14:45:15.924Z,96189.22
2022-11-06T14:47:53.231Z,96198.09
2022-11-06T14:50:19.893Z,96200.84
2022-11-06T14:53:34.320Z,96202.13
2022-11-06T14:56:04.259Z,96203.91
2022-11-06T14:58:41.321Z,96202.56
2022-11-06T15:01:10.800Z,96202.19
2022-11-06T15:03:52.960Z,96212.59
2022-11-06T15:06:19.561Z,96208.59
2022-11-06T15:08:49.110Z,96213.91
2022-11-06T15:11:30.899Z,96218.03
2022-11-06T15:14:04.837Z,96212.03
2022-11-06T15:16:50.008Z,96209.00
2022-11-06T15:19:31.113Z,96223.56
2022-11-06T15:22:15.114Z,96222.06
2022-11-06T15:24:51.944Z,96220.19
2022-11-06T15:27:23.799Z,96216.34
2022-11-06T15:29:54.466Z,96215.09
2022-11-06T15:32:24.531Z,96215.72
2022-11-06T15:34:59.983Z,96221.41
2022-11-06T15:37:39.270Z,96218.44
2022-11-06T15:40:06.900Z,96222.84
2022-11-06T15:42:37.191Z,96218.28
2022-11-06T15:45:21.866Z,96217.91
2022-11-06T15:48:05.390Z,96212.91
2022-11-06T15:50:34.579Z,96215.88
2022-11-06T15:53:13.287Z,96212.81
2022-11-06T15:55:50.718Z,96204.78
2022-11-06T15:58:17.335Z,96205.34
2022-11-06T16:00:44.738Z,96206.94
2022-11-06T16:03:24.432Z,96208.91
2022-11-06T16:05:53.929Z,96200.56
2022-11-06T16:08:23.768Z,96203.53
2022-11-06T16:10:51.292Z,96203.97
2022-11-06T16:13:20.496Z,96211.22
2022-11-06T16:15:53.235Z,96218.75
2022-11-06T16:18:25.545Z,96219.63
2022-11-06T16:21:18.779Z,96221.59
2022-11-06T16:23:59.218Z,96227.31
2022-11-06T16:26:37.920Z,96227.75
2022-11-06T16:29:22.394Z,96234.19
2022-11-06T16:31:59.330Z,96229.31
2022-11-06T16:34:31.723Z,96230.59
2022-11-06T16:37:01.118Z,96236.44
2022-11-06T16:39:48.906Z,96238.69
2022-11-06T16:42:22.441Z,96232.28
2022-11-06T16:44:50.907Z,96237.03
2022-11-06T16:47:22.842Z,96237.16
2022-11-06T16:49:53.839Z,96237.88
2022-11-06T16:52:31.239Z,96239.00
2022-11-06T16:55:17.112Z,96241.50
2022-11-06T16:57:45.656Z,96234.81
2022-11-06T17:00:21.302Z,96239.72
2022-11-06T17:02:54.393Z,96242.22
2022-11-06T17:05:26.809Z,96247.91
2022-11-06T17:08:21.616Z,96240.97
2022-11-06T17:10:56.447Z,96241.78
2022-11-06T17:13:27.067Z,96238.44
2022-11-06T17:15:56.923Z,96244.88
2022-11-06T17:18:26.975Z,96248.50
2022-11-06T17:20:59.826Z,96249.03
2022-11-06T17:23:28.067Z,96254.31
2022-11-06T17:26:01.352Z,96257.94
2022-11-06T17:28:28.124Z,96265.19
2022-11-06T17:30:55.215Z,96265.19
2022-11-06T17:33:22.112Z,96262.81
2022-11-06T17:35:50.759Z,96266.44
2022-11-06T17:38:18.511Z,96262.81
2022-11-06T17:40:46.020Z,96263.94
2022-11-06T17:43:13.535Z,96269.34
2022-11-06T17:45:43.148Z,96262.94
2022-11-06T17:48:09.803Z,96262.09
2022-11-06T17:50:56.472Z,96266.84
2022-11-06T17:53:23.213Z,96269.63
2022-11-06T17:55:49.840Z,96268.34
2022-11-06T17:58:16.812Z,96266.97
2022-11-06T18:00:43.931Z,96273.66
2022-11-06T18:03:21.734Z,96269.59
2022-11-06T18:05:48.464Z,96268.06
2022-11-06T18:08:15.545Z,96267.38
2022-11-06T18:10:42.534Z,96270.84
2022-11-06T18:13:09.236Z,96260.00
2022-11-06T18:15:37.490Z,96260.41
2022-11-06T18:18:04.354Z,96266.22
2022-11-06T18:20:30.991Z,96263.16
2022-11-06T18:22:57.653Z,96266.38
2022-11-06T18:25:24.397Z,96265.53
2022-11-06T18:27:51.048Z,96265.09
2022-11-06T18:30:17.716Z,96272.31
2022-11-06T18:32:44.349Z,96269.38
2022-11-06T18:35:11.025Z,96268.69
2022-11-06T18:37:37.655Z,96266.72
2022-11-06T18:40:04.705Z,96269.19
2022-11-06T18:42:31.381Z,96270.56
2022-11-06T18:44:58.060Z,96265.53
2022-11-06T18:47:24.683Z,96271.06
2022-11-06T18:49:51.333Z,96274.13
2022-11-06T18:52:37.967Z,96279.09
2022-11-06T18:55:05.068Z,96270.72
2022-11-06T18:57:31.804Z,96270.00
2022-11-06T18:59:58.435Z,96283.22
2022-11-06T19:02:25.301Z,96286.84
2022-11-06T19:04:52.195Z,96295.97
2022-11-06T19:07:18.950Z,96289.28
2022-11-06T19:09:45.644Z,96281.47
2022-11-06T19:12:12.334Z,96291.09
2022-11-06T19:14:38.943Z,96291.22
2022-11-06T19:17:05.804Z,96285.47
2022-11-06T19:19:32.451Z,96285.63
2022-11-06T19:21:59.196Z,96286.16
2022-11-06T19:24:25.811Z,96286.41
2022-11-06T19:26:52.542Z,96294.19
2022-11-06T19:29:19.172Z,96294.44
2022-11-06T19:31:45.797Z,96297.34
2022-11-06T19:34:13.369Z,96299.25
2022-11-06T19:36:39.962Z,96299.41
2022-11-06T19:39:07.340Z,96309.34
2022-11-06T19:41:34.410Z,96307.13
2022-11-06T19:44:01.128Z,96310.72
2022-11-06T19:46:34.069Z,96312.66
2022-11-06T19:49:04.615Z,96309.44
2022-11-06T19:51:31.892Z,96314.09
2022-11-06T19:53:58.657Z,96312.59
2022-11-06T19:56:25.791Z,96311.59
2022-11-06T19:58:52.684Z,96312.00
2022-11-06T20:01:21.054Z,96313.91
2022-11-06T20:03:47.831Z,96312.34
2022-11-06T20:06:14.918Z,96315.13
2022-11-06T20:08:41.569Z,96310.25
2022-11-06T20:11:13.684Z,96309.78
2022-11-06T20:13:44.205Z,96312.69
2022-11-06T20:16:13.531Z,96309.31
2022-11-06T20:18:40.161Z,96310.41
2022-11-06T20:21:09.541Z,96310.19
2022-11-06T20:23:36.722Z,96313.91
2022-11-06T20:26:04.900Z,96306.38
2022-11-06T20:28:32.883Z,96313.94
2022-11-06T20:30:59.844Z,96310.84
2022-11-06T20:33:26.750Z,96310.16
2022-11-06T20:35:53.766Z,96315.53
2022-11-06T20:38:20.839Z,96317.31
2022-11-06T20:40:47.495Z,96313.13
2022-11-06T20:43:14.340Z,96320.22
2022-11-06T20:45:41.139Z,96313.88
2022-11-06T20:48:09.295Z,96313.00
2022-11-06T20:50:36.106Z,96311.34
2022-11-06T20:53:03.234Z,96308.72
2022-11-06T20:55:29.976Z,96307.03
2022-11-06T20:57:56.627Z,96316.03
2022-11-06T21:00:23.424Z,96318.06
2022-11-06T21:02:50.213Z,96316.63
2022-11-06T21:05:17.184Z,96316.88
2022-11-06T21:07:43.851Z,96311.88
2022-11-06T21:10:12.131Z,96314.63
2022-11-06T21:12:38.779Z,96317.59
2022-11-06T21:15:05.993Z,96312.34
2022-11-06T21:17:32.993Z,96309.22
2022-11-06T21:19:59.807Z,96317.13
2022-11-06T21:22:26.539Z,96309.22
2022-11-06T21:24:53.173Z,96307.81
2022-11-06T21:27:20.181Z,96301.84
2022-11-06T21:29:46.814Z,96313.31
2022-11-06T21:32:13.505Z,96314.66
2022-11-06T21:34:40.125Z,96309.72
2022-11-06T21:37:06.820Z,96316.31
2022-11-06T21:39:36.426Z,96312.84
2022-11-06T21:42:04.726Z,96306.16
2022-11-06T21:44:31.515Z,96316.69
2022-11-06T21:46:58.117Z,96309.13
2022-11-06T21:49:24.705Z,96304.13
2022-11-06T21:51:51.400Z,96308.56
2022-11-06T21:54:36.842Z,96301.34
2022-11-06T21:57:03.523Z,96303.28
2022-11-06T21:59:30.646Z,96306.75
2022-11-06T22:01:57.599Z,96304.13
2022-11-06T22:04:24.588Z,96306.25
2022-11-06T22:06:52.512Z,96299.44
2022-11-06T22:09:24.435Z,96305.69
2022-11-06T22:11:52.155Z,96300.63
2022-11-06T22:14:18.787Z,96304.00
2022-11-06T22:16:47.496Z,96297.06
2022-11-06T22:19:16.025Z,96303.13
2022-11-06T22:21:42.898Z,96307.56
2022-11-06T22:24:12.302Z,96300.41
2022-11-06T22:26:39.005Z,96303.75
2022-11-06T22:29:08.594Z,96295.03
2022-11-06T22:31:35.428Z,96299.31
2022-11-06T22:34:02.254Z,96302.44
2022-11-06T22:36:29.060Z,96299.91
2022-11-06T22:38:56.796Z,96288.69
2022-11-06T22:41:25.424Z,96294.66
2022-11-06T22:43:57.096Z,96299.91
2022-11-06T22:46:23.977Z,96305.91
2022-11-06T22:48:51.726Z,96296.09
2022-11-06T22:51:24.331Z,96292.50
2022-11-06T22:53:51.853Z,96295.38
2022-11-06T22:56:21.940Z,96291.69
2022-11-06T22:58:56.901Z,96296.94
2022-11-06T23:01:25.770Z,96294.53
2022-11-06T23:03:56.843Z,96299.91
2022-11-06T23:06:25.413Z,96301.84
2022-11-06T23:08:52.298Z,96300.41
2022-11-06T23:11:19.398Z,96302.94
2022-11-06T23:13:46.052Z,96294.91
2022-11-06T23:16:39.151Z,96298.50
2022-11-06T23:19:06.122Z,96296.59
2022-11-06T23:21:32.764Z,96300.88
2022-11-06T23:23:59.458Z,96292.97
2022-11-06T23:26:26.432Z,96292.03
2022-11-06T23:28:55.364Z,96293.97
2022-11-06T23:31:22.665Z,96293.84
2022-11-06T23:33:49.863Z,96294.53
2022-11-06T23:36:17.710Z,96296.94
2022-11-06T23:38:44.934Z,96297.78
2022-11-06T23:41:35.286Z,96303.88
2022-11-06T23:44:02.986Z,96304.47
2022-11-06T23:46:33.712Z,96293.94
2022-11-06T23:49:00.447Z,96299.09
2022-11-06T23:51:27.778Z,96292.88
2022-11-06T23:53:54.562Z,96303.41
2022-11-06T23:56:21.281Z,96302.53
2022-11-06T23:58:47.842Z,96304.22
